Flight Track Log - Related Links

Times and Time Zones

All times are in EST time to prevent confusion due to time zone crossing. See the SKW6492 flight status page for this flight to view local times or setup timezone preferences in your user account.

Time Position Orientation Groundspeed Altitude Reporting Facility
EST Latitude Longitude Course Direction KTS MPH feet Rate Location/Type
Mon 10:54:31 PM 39.9333 -104.7000 346° North 203 234 7,200  Level Denver TRACON
Mon 10:55:31 PM 39.9833 -104.6833 14° North 232 267 9,700 2,424 Climbing Denver TRACON
Mon 10:56:10 PM 40.0294 -104.6628 19° North 236 272 11,200 2,257 Climbing Denver Center
Mon 10:57:00 PM 40.2171 -104.7868 347° North  Level FlightAware Approximate
Mon 10:57:12 PM 40.1014 -104.6692 356° North 262 302 13,500  Level Denver Center
Mon 10:58:00 PM 40.3094 -104.8145 347° North  Level FlightAware Approximate
Mon 10:58:13 PM 40.1739 -104.6881 349° North 267 307 15,100  Level Denver Center
Mon 10:59:00 PM 40.4013 -104.8449 346° North  Level FlightAware Approximate
Mon 10:59:14 PM 40.2636 -104.7111 349° North 306 352 16,900  Level Denver Center
Mon 11:00:15 PM 40.3500 -104.7342 349° North 322 371 18,300 1,610 Climbing Denver Center
Mon 11:01:17 PM 40.4336 -104.7581 348° North 311 358 20,200 1,707 Climbing Denver Center
Mon 11:02:18 PM 40.5239 -104.7800 350° North 309 356 21,800 1,254 Climbing Denver Center
Mon 11:03:31 PM 40.6119 -104.8031 349° North 319 367 23,000 1,067 Climbing Denver Center
Mon 11:04:33 PM 40.7186 -104.8306 349° North 325 374 24,200 927 Climbing Denver Center
Mon 11:05:34 PM 40.8108 -104.8614 346° North 338 389 24,900 836 Climbing Denver Center
Mon 11:06:35 PM 40.8994 -104.9044 340° North 339 390 25,900 885 Climbing Denver Center
Mon 11:07:36 PM 40.9894 -104.9483 340° North 343 395 26,700 836 Climbing Denver Center
Mon 11:08:37 PM 41.0858 -104.9961 340° North 345 397 27,600 634 Climbing Denver Center
Mon 11:09:39 PM 41.1719 -105.0386 340° North 344 396 28,000 195 Climbing Denver Center
Mon 11:10:40 PM 41.2756 -105.0883 340° North 351 404 28,000  Level Denver Center
Mon 11:11:41 PM 41.3678 -105.1361 339° North 365 420 28,000  Level Denver Center
Mon 11:12:42 PM 41.4733 -105.1886 340° North 363 418 28,000  Level Denver Center
Mon 11:13:43 PM 41.5608 -105.2369 338° Northwest 358 412 28,000  Level Denver Center
Mon 11:14:45 PM 41.6325 -105.3106 322° Northwest 341 392 28,000  Level Denver Center
Mon 11:15:46 PM 41.7172 -105.4019 321° Northwest 345 397 28,000  Level Denver Center
Mon 11:16:47 PM 41.7897 -105.4806 321° Northwest 349 402 28,000  Level Denver Center
Mon 11:17:48 PM 41.8644 -105.5594 322° Northwest 354 407 28,000  Level Denver Center
Mon 11:18:49 PM 41.9503 -105.6539 321° Northwest 355 409 28,000  Level Denver Center
Mon 11:19:50 PM 42.0247 -105.7347 321° Northwest 358 412 28,000  Level Denver Center
Mon 11:20:52 PM 42.1114 -105.8306 321° Northwest 360 414 28,000  Level Denver Center
Mon 11:21:53 PM 42.1844 -105.9122 320° Northwest 357 411 28,000  Level Denver Center
Mon 11:22:54 PM 42.2594 -105.9947 321° Northwest 361 415 28,000  Level Denver Center
Mon 11:23:55 PM 42.3467 -106.0914 321° Northwest 362 417 28,000  Level Denver Center
Mon 11:24:57 PM 42.4200 -106.1742 320° Northwest 360 414 28,000  Level Denver Center
Mon 11:25:58 PM 42.4925 -106.2550 321° Northwest 355 409 28,000  Level Denver Center
Mon 11:26:59 PM 42.5756 -106.3483 320° Northwest 348 400 28,000  Level Denver Center
Mon 11:28:00 PM 42.6492 -106.4303 321° Northwest 353 406 28,000  Level Denver Center
Mon 11:29:02 PM 42.7322 -106.5256 320° Northwest 351 404 28,000  Level Denver Center
Mon 11:30:03 PM 42.8053 -106.6064 321° Northwest 353 406 28,000  Level Denver Center
Mon 11:31:04 PM 42.8767 -106.6883 320° Northwest 351 404 28,000  Level Denver Center
Mon 11:32:05 PM 42.9608 -106.7847 320° Northwest 352 405 28,000  Level Denver Center
Mon 11:33:07 PM 43.0317 -106.8647 320° Northwest 348 400 28,000  Level Denver Center
Mon 11:33:54 PM 43.0886 -106.9336 319° Northwest 343 395 28,000  Level Salt Lake Center
Mon 11:34:55 PM 43.1556 -107.0083 321° Northwest 340 391 28,000  Level Salt Lake Center
Mon 11:35:56 PM 43.2256 -107.0911 319° Northwest 334 384 28,000  Level Salt Lake Center
Mon 11:36:57 PM 43.3114 -107.1872 321° Northwest 332 382 28,000  Level Salt Lake Center
Mon 11:37:59 PM 43.3814 -107.2711 319° Northwest 333 383 28,000  Level Salt Lake Center
Mon 11:39:00 PM 43.4544 -107.3556 320° Northwest 342 394 28,000  Level Salt Lake Center
Mon 11:40:01 PM 43.5283 -107.4436 319° Northwest 348 400 28,000  Level Salt Lake Center
Mon 11:41:02 PM 43.6017 -107.5286 320° Northwest 346 398 28,000  Level Salt Lake Center
Mon 11:42:03 PM 43.6739 -107.6147 319° Northwest 344 396 28,000  Level Salt Lake Center
Mon 11:43:05 PM 43.7450 -107.6994 319° Northwest 338 389 28,000  Level Salt Lake Center
Mon 11:44:06 PM 43.8158 -107.7833 319° Northwest 336 387 28,000  Level Salt Lake Center
Mon 11:45:07 PM 43.8869 -107.8658 320° Northwest 333 383 28,000 -49 Level Salt Lake Center
Mon 11:46:08 PM 43.9556 -107.9494 319° Northwest 329 379 27,900 -1,279 Descending Salt Lake Center
Mon 11:47:09 PM 44.0239 -108.0403 316° Northwest 338 389 25,400 -2,754 Descending Salt Lake Center
Mon 11:48:10 PM 44.0964 -108.1486 313° West 322 371 22,300 -2,754 Descending Salt Lake Center
Mon 11:49:11 PM 44.1578 -108.2444 312° West 324 373 19,800 -2,361 Descending Salt Lake Center
Mon 11:50:12 PM 44.2214 -108.3422 312° West 332 382 17,500 -2,341 Descending Salt Lake Center
Mon 11:51:14 PM 44.2819 -108.4353 312° West 331 381 15,000 -2,146 Descending Salt Lake Center
Mon 11:52:15 PM 44.3375 -108.5206 312° West 319 367 13,100 -1,820 Descending Salt Lake Center
Mon 11:53:16 PM 44.3878 -108.6000 312° West 297 342 11,300 -1,574 Descending Salt Lake Center
Mon 11:54:17 PM 44.4389 -108.6767 313° West 283 326 9,900 -1,230 Descending Salt Lake Center
Mon 11:55:18 PM 44.4881 -108.7478 314° West 270 311 8,800 -1,180 Descending Salt Lake Center
Mon 11:56:19 PM 44.5333 -108.8200 311° West 259 298 7,500 -1,082 Descending Salt Lake Center
Mon 11:57:20 PM 44.5567 -108.9000 292° West 240 276 6,600 -541 Descending Salt Lake Center
Mon 11:58:21 PM 44.5569 -108.9697 270° West 207 238 6,400 -246 Descending Salt Lake Center
Mon 11:59:22 PM 44.5286 -109.0128 227° Southwest 196 226 6,100 -295 Descending Salt Lake Center

Login

Don't have an account? Register now (free) for customized features, flight alerts, and more!